sensor_id;sensor_type;location;lat;lon;timestamp;pressure;altitude;pressure_sealevel;temperature;humidity
64853;BME280;56050;55.558;-4.644;2023-03-19T00:02:03;100963.59;;;9.41;71.73
64853;BME280;56050;55.558;-4.644;2023-03-19T00:04:28;100965.88;;;9.39;71.84
64853;BME280;56050;55.558;-4.644;2023-03-19T00:06:55;100976.22;;;9.37;72.04
64853;BME280;56050;55.558;-4.644;2023-03-19T00:09:20;100977.38;;;9.36;72.15
64853;BME280;56050;55.558;-4.644;2023-03-19T00:11:47;100964.31;;;9.35;72.27
64853;BME280;56050;55.558;-4.644;2023-03-19T00:14:12;100962.75;;;9.34;72.37
64853;BME280;56050;55.558;-4.644;2023-03-19T00:16:38;100973.50;;;9.34;72.50
64853;BME280;56050;55.558;-4.644;2023-03-19T00:19:04;100971.59;;;9.34;72.55
64853;BME280;56050;55.558;-4.644;2023-03-19T00:21:29;100964.66;;;9.33;72.70
64853;BME280;56050;55.558;-4.644;2023-03-19T00:23:55;100971.59;;;9.34;72.79
64853;BME280;56050;55.558;-4.644;2023-03-19T00:26:26;100965.09;;;9.35;73.01
64853;BME280;56050;55.558;-4.644;2023-03-19T00:28:53;100971.25;;;9.36;72.97
64853;BME280;56050;55.558;-4.644;2023-03-19T00:31:19;100976.97;;;9.34;72.96
64853;BME280;56050;55.558;-4.644;2023-03-19T00:33:44;100973.16;;;9.35;73.09
64853;BME280;56050;55.558;-4.644;2023-03-19T00:36:11;100973.16;;;9.35;73.17
64853;BME280;56050;55.558;-4.644;2023-03-19T00:38:37;100976.22;;;9.37;73.07
64853;BME280;56050;55.558;-4.644;2023-03-19T00:41:04;100976.63;;;9.39;73.03
64853;BME280;56050;55.558;-4.644;2023-03-19T00:43:30;100976.63;;;9.39;73.16
64853;BME280;56050;55.558;-4.644;2023-03-19T00:45:56;100975.50;;;9.40;73.12
64853;BME280;56050;55.558;-4.644;2023-03-19T00:48:23;100978.22;;;9.44;72.96
64853;BME280;56050;55.558;-4.644;2023-03-19T00:50:49;100986.28;;;9.48;73.04
64853;BME280;56050;55.558;-4.644;2023-03-19T00:53:14;100993.22;;;9.49;72.91
64853;BME280;56050;55.558;-4.644;2023-03-19T00:55:40;100996.31;;;9.47;72.92
64853;BME280;56050;55.558;-4.644;2023-03-19T00:58:06;100999.00;;;9.47;73.00
64853;BME280;56050;55.558;-4.644;2023-03-19T01:00:32;101001.25;;;9.45;73.03
64853;BME280;56050;55.558;-4.644;2023-03-19T01:02:59;101012.78;;;9.45;72.93
64853;BME280;56050;55.558;-4.644;2023-03-19T01:05:24;100999.69;;;9.40;72.93
64853;BME280;56050;55.558;-4.644;2023-03-19T01:07:50;101002.72;;;9.39;72.85
64853;BME280;56050;55.558;-4.644;2023-03-19T01:10:20;100996.59;;;9.38;72.76
64853;BME280;56050;55.558;-4.644;2023-03-19T01:12:46;101001.97;;;9.38;72.83
64853;BME280;56050;55.558;-4.644;2023-03-19T01:15:12;101005.44;;;9.39;72.82
64853;BME280;56050;55.558;-4.644;2023-03-19T01:17:38;101014.69;;;9.41;72.88
64853;BME280;56050;55.558;-4.644;2023-03-19T01:20:03;101013.53;;;9.42;72.64
64853;BME280;56050;55.558;-4.644;2023-03-19T01:22:35;101016.59;;;9.41;72.55
64853;BME280;56050;55.558;-4.644;2023-03-19T01:25:01;101016.59;;;9.41;72.59
64853;BME280;56050;55.558;-4.644;2023-03-19T01:27:26;101028.13;;;9.41;72.48
64853;BME280;56050;55.558;-4.644;2023-03-19T01:29:52;101026.63;;;9.44;72.55
64853;BME280;56050;55.558;-4.644;2023-03-19T01:32:17;101023.53;;;9.45;72.39
64853;BME280;56050;55.558;-4.644;2023-03-19T01:34:42;101034.69;;;9.48;72.50
64853;BME280;56050;55.558;-4.644;2023-03-19T01:37:08;101038.94;;;9.49;72.37
64853;BME280;56050;55.558;-4.644;2023-03-19T01:39:33;101042.75;;;9.48;72.35
64853;BME280;56050;55.558;-4.644;2023-03-19T01:42:02;101054.34;;;9.52;72.49
64853;BME280;56050;55.558;-4.644;2023-03-19T01:44:35;101058.16;;;9.51;72.42
64853;BME280;56050;55.558;-4.644;2023-03-19T01:47:04;101064.69;;;9.50;72.46
64853;BME280;56050;55.558;-4.644;2023-03-19T01:49:31;101065.09;;;9.52;72.43
64853;BME280;56050;55.558;-4.644;2023-03-19T01:51:58;101061.28;;;9.53;72.47
64853;BME280;56050;55.558;-4.644;2023-03-19T01:54:27;101062.81;;;9.54;72.59
64853;BME280;56050;55.558;-4.644;2023-03-19T01:57:03;101068.56;;;9.56;72.38
64853;BME280;56050;55.558;-4.644;2023-03-19T01:59:33;101059.75;;;9.55;72.17
64853;BME280;56050;55.558;-4.644;2023-03-19T02:02:02;101064.34;;;9.55;72.27
64853;BME280;56050;55.558;-4.644;2023-03-19T02:04:33;101069.34;;;9.56;72.31
64853;BME280;56050;55.558;-4.644;2023-03-19T02:07:01;101063.19;;;9.56;72.26
64853;BME280;56050;55.558;-4.644;2023-03-19T02:09:28;101059.38;;;9.57;72.21
64853;BME280;56050;55.558;-4.644;2023-03-19T02:11:55;101067.44;;;9.57;72.12
64853;BME280;56050;55.558;-4.644;2023-03-19T02:14:21;101063.63;;;9.58;72.10
64853;BME280;56050;55.558;-4.644;2023-03-19T02:16:47;101066.31;;;9.58;72.11
64853;BME280;56050;55.558;-4.644;2023-03-19T02:19:14;101059.03;;;9.58;72.07
64853;BME280;56050;55.558;-4.644;2023-03-19T02:21:41;101069.00;;;9.58;71.85
64853;BME280;56050;55.558;-4.644;2023-03-19T02:24:19;101070.53;;;9.55;71.94
64853;BME280;56050;55.558;-4.644;2023-03-19T02:26:47;101070.53;;;9.55;71.85
64853;BME280;56050;55.558;-4.644;2023-03-19T02:29:13;101075.47;;;9.53;71.99
64853;BME280;56050;55.558;-4.644;2023-03-19T02:31:38;101078.16;;;9.53;72.07
64853;BME280;56050;55.558;-4.644;2023-03-19T02:34:15;101091.25;;;9.55;71.89
64853;BME280;56050;55.558;-4.644;2023-03-19T02:36:54;101084.72;;;9.56;71.93
64853;BME280;56050;55.558;-4.644;2023-03-19T02:39:47;101085.84;;;9.51;71.70
64853;BME280;56050;55.558;-4.644;2023-03-19T02:42:14;101093.56;;;9.53;71.73
64853;BME280;56050;55.558;-4.644;2023-03-19T02:44:40;101095.81;;;9.51;71.56
64853;BME280;56050;55.558;-4.644;2023-03-19T02:47:06;101101.56;;;9.49;71.59
64853;BME280;56050;55.558;-4.644;2023-03-19T02:49:31;101094.63;;;9.48;71.41
64853;BME280;56050;55.558;-4.644;2023-03-19T02:51:56;101101.19;;;9.47;71.38
64853;BME280;56050;55.558;-4.644;2023-03-19T02:54:22;101108.47;;;9.47;71.38
64853;BME280;56050;55.558;-4.644;2023-03-19T02:56:47;101108.81;;;9.45;71.11
64853;BME280;56050;55.558;-4.644;2023-03-19T02:59:13;101106.13;;;9.41;71.05
64853;BME280;56050;55.558;-4.644;2023-03-19T03:01:39;101115.31;;;9.40;70.99
64853;BME280;56050;55.558;-4.644;2023-03-19T03:04:05;101122.59;;;9.40;70.66
64853;BME280;56050;55.558;-4.644;2023-03-19T03:06:30;101121.41;;;9.37;70.70
64853;BME280;56050;55.558;-4.644;2023-03-19T03:08:56;101117.22;;;9.40;70.62
64853;BME280;56050;55.558;-4.644;2023-03-19T03:11:21;101120.31;;;9.42;70.53
64853;BME280;56050;55.558;-4.644;2023-03-19T03:13:47;101119.97;;;9.43;70.48
64853;BME280;56050;55.558;-4.644;2023-03-19T03:16:12;101125.69;;;9.42;70.26
64853;BME280;56050;55.558;-4.644;2023-03-19T03:18:38;101115.31;;;9.40;70.23
64853;BME280;56050;55.558;-4.644;2023-03-19T03:21:03;101118.72;;;9.37;70.25
64853;BME280;56050;55.558;-4.644;2023-03-19T03:23:28;101124.06;;;9.34;70.26
64853;BME280;56050;55.558;-4.644;2023-03-19T03:25:54;101130.22;;;9.34;70.38
64853;BME280;56050;55.558;-4.644;2023-03-19T03:28:19;101136.72;;;9.33;70.21
64853;BME280;56050;55.558;-4.644;2023-03-19T03:30:45;101134.81;;;9.34;70.43
64853;BME280;56050;55.558;-4.644;2023-03-19T03:33:11;101140.19;;;9.34;70.36
64853;BME280;56050;55.558;-4.644;2023-03-19T03:35:37;101143.31;;;9.36;70.39
64853;BME280;56050;55.558;-4.644;2023-03-19T03:38:02;101142.53;;;9.35;70.02
64853;BME280;56050;55.558;-4.644;2023-03-19T03:40:28;101135.59;;;9.34;69.92
64853;BME280;56050;55.558;-4.644;2023-03-19T03:42:53;101135.97;;;9.33;69.70
64853;BME280;56050;55.558;-4.644;2023-03-19T03:45:19;101127.13;;;9.32;69.85
64853;BME280;56050;55.558;-4.644;2023-03-19T03:47:44;101129.44;;;9.34;69.75
64853;BME280;56050;55.558;-4.644;2023-03-19T03:50:10;101125.97;;;9.33;69.29
64853;BME280;56050;55.558;-4.644;2023-03-19T03:52:37;101128.63;;;9.30;69.48
64853;BME280;56050;55.558;-4.644;2023-03-19T03:55:04;101134.38;;;9.28;69.21
64853;BME280;56050;55.558;-4.644;2023-03-19T03:57:29;101138.56;;;9.26;69.23
64853;BME280;56050;55.558;-4.644;2023-03-19T03:59:54;101138.22;;;9.27;69.22
64853;BME280;56050;55.558;-4.644;2023-03-19T04:02:20;101146.28;;;9.27;69.07
64853;BME280;56050;55.558;-4.644;2023-03-19T04:04:46;101159.28;;;9.25;68.98
64853;BME280;56050;55.558;-4.644;2023-03-19T04:07:11;101159.72;;;9.27;68.83
64853;BME280;56050;55.558;-4.644;2023-03-19T04:09:37;101161.63;;;9.27;68.84
64853;BME280;56050;55.558;-4.644;2023-03-19T04:12:02;101164.72;;;9.29;68.80
64853;BME280;56050;55.558;-4.644;2023-03-19T04:14:28;101167.78;;;9.27;68.92
64853;BME280;56050;55.558;-4.644;2023-03-19T04:16:53;101164.66;;;9.25;69.13
64853;BME280;56050;55.558;-4.644;2023-03-19T04:19:19;101156.59;;;9.25;69.05
64853;BME280;56050;55.558;-4.644;2023-03-19T04:21:45;101164.66;;;9.25;68.96
64853;BME280;56050;55.558;-4.644;2023-03-19T04:24:11;101164.66;;;9.25;69.05
64853;BME280;56050;55.558;-4.644;2023-03-19T04:26:37;101180.81;;;9.25;68.98
64853;BME280;56050;55.558;-4.644;2023-03-19T04:29:03;101186.16;;;9.25;68.73
64853;BME280;56050;55.558;-4.644;2023-03-19T04:31:28;101190.81;;;9.25;68.79
64853;BME280;56050;55.558;-4.644;2023-03-19T04:33:54;101201.56;;;9.25;68.90
64853;BME280;56050;55.558;-4.644;2023-03-19T04:36:20;101205.00;;;9.25;68.72
64853;BME280;56050;55.558;-4.644;2023-03-19T04:38:45;101206.56;;;9.26;68.83
64853;BME280;56050;55.558;-4.644;2023-03-19T04:41:12;101206.56;;;9.26;68.58
64853;BME280;56050;55.558;-4.644;2023-03-19T04:43:38;101206.94;;;9.25;68.62
64853;BME280;56050;55.558;-4.644;2023-03-19T04:46:04;101206.16;;;9.24;68.45
64853;BME280;56050;55.558;-4.644;2023-03-19T04:48:31;101208.06;;;9.24;68.40
64853;BME280;56050;55.558;-4.644;2023-03-19T04:50:56;101215.34;;;9.23;68.30
64853;BME280;56050;55.558;-4.644;2023-03-19T04:53:22;101211.09;;;9.22;68.24
64853;BME280;56050;55.558;-4.644;2023-03-19T04:55:49;101225.69;;;9.21;67.92
64853;BME280;56050;55.558;-4.644;2023-03-19T04:58:15;101232.19;;;9.20;67.92
64853;BME280;56050;55.558;-4.644;2023-03-19T05:00:40;101231.41;;;9.20;68.01
64853;BME280;56050;55.558;-4.644;2023-03-19T05:03:06;101236.78;;;9.20;67.95
64853;BME280;56050;55.558;-4.644;2023-03-19T05:05:31;101226.03;;;9.20;68.14
64853;BME280;56050;55.558;-4.644;2023-03-19T05:07:57;101223.72;;;9.18;68.12
64853;BME280;56050;55.558;-4.644;2023-03-19T05:10:22;101224.53;;;9.22;67.98
64853;BME280;56050;55.558;-4.644;2023-03-19T05:12:48;101226.03;;;9.20;67.74
64853;BME280;56050;55.558;-4.644;2023-03-19T05:15:14;101239.81;;;9.15;67.47
64853;BME280;56050;55.558;-4.644;2023-03-19T05:17:39;101242.88;;;9.13;67.43
64853;BME280;56050;55.558;-4.644;2023-03-19T05:20:05;101251.34;;;9.15;67.54
64853;BME280;56050;55.558;-4.644;2023-03-19T05:22:31;101254.03;;;9.15;67.52
64853;BME280;56050;55.558;-4.644;2023-03-19T05:24:56;101268.31;;;9.19;67.06
64853;BME280;56050;55.558;-4.644;2023-03-19T05:27:22;101264.06;;;9.18;66.95
64853;BME280;56050;55.558;-4.644;2023-03-19T05:29:47;101261.75;;;9.17;66.95
64853;BME280;56050;55.558;-4.644;2023-03-19T05:32:12;101263.66;;;9.16;66.75
64853;BME280;56050;55.558;-4.644;2023-03-19T05:34:38;101265.56;;;9.16;66.94
64853;BME280;56050;55.558;-4.644;2023-03-19T05:37:03;101275.91;;;9.14;66.71
64853;BME280;56050;55.558;-4.644;2023-03-19T05:39:29;101272.44;;;9.13;66.51
64853;BME280;56050;55.558;-4.644;2023-03-19T05:41:54;101281.31;;;9.17;66.63
64853;BME280;56050;55.558;-4.644;2023-03-19T05:44:20;101274.41;;;9.16;66.33
64853;BME280;56050;55.558;-4.644;2023-03-19T05:46:46;101275.13;;;9.13;66.30
64853;BME280;56050;55.558;-4.644;2023-03-19T05:49:12;101279.72;;;9.13;66.39
64853;BME280;56050;55.558;-4.644;2023-03-19T05:51:37;101290.47;;;9.13;66.49
64853;BME280;56050;55.558;-4.644;2023-03-19T05:54:03;101291.25;;;9.13;66.30
64853;BME280;56050;55.558;-4.644;2023-03-19T05:56:28;101289.75;;;9.16;66.31
64853;BME280;56050;55.558;-4.644;2023-03-19T05:58:54;101292.44;;;9.16;66.18
64853;BME280;56050;55.558;-4.644;2023-03-19T06:01:19;101283.97;;;9.14;66.26
64853;BME280;56050;55.558;-4.644;2023-03-19T06:03:45;101297.41;;;9.14;66.20
64853;BME280;56050;55.558;-4.644;2023-03-19T06:06:10;101294.00;;;9.17;66.28
64853;BME280;56050;55.558;-4.644;2023-03-19T06:08:36;101298.22;;;9.18;66.22
64853;BME280;56050;55.558;-4.644;2023-03-19T06:11:01;101303.59;;;9.18;66.22
64853;BME280;56050;55.558;-4.644;2023-03-19T06:13:27;101304.00;;;9.20;66.31
64853;BME280;56050;55.558;-4.644;2023-03-19T06:15:52;101303.66;;;9.21;66.34
64853;BME280;56050;55.558;-4.644;2023-03-19T06:18:18;101302.09;;;9.20;66.53
64853;BME280;56050;55.558;-4.644;2023-03-19T06:20:45;101303.59;;;9.18;66.63
64853;BME280;56050;55.558;-4.644;2023-03-19T06:23:11;101310.53;;;9.19;66.58
64853;BME280;56050;55.558;-4.644;2023-03-19T06:25:36;101316.31;;;9.21;66.54
64853;BME280;56050;55.558;-4.644;2023-03-19T06:28:02;101325.56;;;9.23;66.54
64853;BME280;56050;55.558;-4.644;2023-03-19T06:30:27;101317.88;;;9.22;66.25
64853;BME280;56050;55.558;-4.644;2023-03-19T06:32:53;101322.81;;;9.20;66.00
64853;BME280;56050;55.558;-4.644;2023-03-19T06:35:18;101320.13;;;9.20;65.95
64853;BME280;56050;55.558;-4.644;2023-03-19T06:37:44;101331.63;;;9.17;65.79
64853;BME280;56050;55.558;-4.644;2023-03-19T06:40:10;101350.00;;;9.15;65.64
64853;BME280;56050;55.558;-4.644;2023-03-19T06:42:35;101363.09;;;9.16;65.76
64853;BME280;56050;55.558;-4.644;2023-03-19T06:45:01;101364.22;;;9.15;65.80
64853;BME280;56050;55.558;-4.644;2023-03-19T06:47:27;101343.84;;;9.14;65.48
64853;BME280;56050;55.558;-4.644;2023-03-19T06:49:52;101335.38;;;9.12;65.56
64853;BME280;56050;55.558;-4.644;2023-03-19T06:52:18;101334.25;;;9.13;65.49
64853;BME280;56050;55.558;-4.644;2023-03-19T06:54:44;101338.84;;;9.13;65.36
64853;BME280;56050;55.558;-4.644;2023-03-19T06:57:09;101345.78;;;9.14;65.42
64853;BME280;56050;55.558;-4.644;2023-03-19T06:59:35;101352.69;;;9.15;65.40
64853;BME280;56050;55.558;-4.644;2023-03-19T07:02:00;101358.84;;;9.15;65.42
64853;BME280;56050;55.558;-4.644;2023-03-19T07:04:26;101355.75;;;9.13;65.33
64853;BME280;56050;55.558;-4.644;2023-03-19T07:06:51;101352.34;;;9.16;65.32
64853;BME280;56050;55.558;-4.644;2023-03-19T07:09:17;101361.53;;;9.15;65.22
64853;BME280;56050;55.558;-4.644;2023-03-19T07:11:42;101371.16;;;9.16;65.12
64853;BME280;56050;55.558;-4.644;2023-03-19T07:14:07;101379.22;;;9.16;64.81
64853;BME280;56050;55.558;-4.644;2023-03-19T07:16:33;101378.06;;;9.17;64.72
64853;BME280;56050;55.558;-4.644;2023-03-19T07:18:59;101384.59;;;9.16;64.67
64853;BME280;56050;55.558;-4.644;2023-03-19T07:21:24;101372.69;;;9.17;64.70
64853;BME280;56050;55.558;-4.644;2023-03-19T07:23:50;101369.66;;;9.19;64.99
64853;BME280;56050;55.558;-4.644;2023-03-19T07:26:15;101379.31;;;9.23;64.67
64853;BME280;56050;55.558;-4.644;2023-03-19T07:28:41;101386.66;;;9.26;64.40
64853;BME280;56050;55.558;-4.644;2023-03-19T07:31:06;101386.66;;;9.26;64.28
64853;BME280;56050;55.558;-4.644;2023-03-19T07:33:32;101387.06;;;9.28;64.13
64853;BME280;56050;55.558;-4.644;2023-03-19T07:35:57;101382.13;;;9.30;64.33
64853;BME280;56050;55.558;-4.644;2023-03-19T07:38:23;101379.13;;;9.35;63.88
64853;BME280;56050;55.558;-4.644;2023-03-19T07:40:49;101379.91;;;9.36;63.73
64853;BME280;56050;55.558;-4.644;2023-03-19T07:43:15;101394.91;;;9.37;63.96
64853;BME280;56050;55.558;-4.644;2023-03-19T07:45:40;101385.34;;;9.39;64.08
64853;BME280;56050;55.558;-4.644;2023-03-19T07:48:06;101386.16;;;9.43;64.03
64853;BME280;56050;55.558;-4.644;2023-03-19T07:50:31;101383.88;;;9.45;63.88
64853;BME280;56050;55.558;-4.644;2023-03-19T07:52:57;101384.28;;;9.48;63.90
64853;BME280;56050;55.558;-4.644;2023-03-19T07:55:22;101392.81;;;9.50;63.99
64853;BME280;56050;55.558;-4.644;2023-03-19T07:57:48;101398.94;;;9.50;63.59
64853;BME280;56050;55.558;-4.644;2023-03-19T08:00:14;101403.56;;;9.50;63.57
64853;BME280;56050;55.558;-4.644;2023-03-19T08:02:39;101391.63;;;9.47;62.81
64853;BME280;56050;55.558;-4.644;2023-03-19T08:05:07;101400.03;;;9.45;62.63
64853;BME280;56050;55.558;-4.644;2023-03-19T08:07:34;101393.16;;;9.48;62.93
64853;BME280;56050;55.558;-4.644;2023-03-19T08:09:59;101403.97;;;9.52;62.96
64853;BME280;56050;55.558;-4.644;2023-03-19T08:12:25;101412.84;;;9.56;62.98
64853;BME280;56050;55.558;-4.644;2023-03-19T08:14:50;101402.53;;;9.58;62.58
64853;BME280;56050;55.558;-4.644;2023-03-19T08:17:15;101391.78;;;9.61;62.52
64853;BME280;56050;55.558;-4.644;2023-03-19T08:19:41;101395.69;;;9.64;62.55
64853;BME280;56050;55.558;-4.644;2023-03-19T08:22:07;101401.81;;;9.61;62.60
64853;BME280;56050;55.558;-4.644;2023-03-19T08:24:32;101409.56;;;9.66;62.80
64853;BME280;56050;55.558;-4.644;2023-03-19T08:26:57;101420.38;;;9.69;62.84
64853;BME280;56050;55.558;-4.644;2023-03-19T08:29:23;101418.88;;;9.72;62.75
64853;BME280;56050;55.558;-4.644;2023-03-19T08:31:51;101421.97;;;9.74;62.71
64853;BME280;56050;55.558;-4.644;2023-03-19T08:34:17;101416.59;;;9.74;62.67
64853;BME280;56050;55.558;-4.644;2023-03-19T08:36:42;101423.09;;;9.73;62.83
64853;BME280;56050;55.558;-4.644;2023-03-19T08:39:07;101438.91;;;9.74;62.81
64853;BME280;56050;55.558;-4.644;2023-03-19T08:41:33;101447.00;;;9.78;63.02
64853;BME280;56050;55.558;-4.644;2023-03-19T08:43:58;101452.03;;;9.79;62.95
64853;BME280;56050;55.558;-4.644;2023-03-19T08:46:24;101443.59;;;9.81;62.76
64853;BME280;56050;55.558;-4.644;2023-03-19T08:48:52;101442.81;;;9.80;62.25
64853;BME280;56050;55.558;-4.644;2023-03-19T08:51:17;101440.09;;;9.80;62.26
64853;BME280;56050;55.558;-4.644;2023-03-19T08:53:42;101444.75;;;9.80;62.25
64853;BME280;56050;55.558;-4.644;2023-03-19T08:56:08;101452.81;;;9.80;61.75
64853;BME280;56050;55.558;-4.644;2023-03-19T08:58:34;101442.44;;;9.82;61.61
64853;BME280;56050;55.558;-4.644;2023-03-19T09:01:02;101435.19;;;9.86;61.36
64853;BME280;56050;55.558;-4.644;2023-03-19T09:03:27;101427.91;;;9.86;61.25
64853;BME280;56050;55.558;-4.644;2023-03-19T09:05:57;101425.59;;;9.85;61.45
64853;BME280;56050;55.558;-4.644;2023-03-19T09:08:23;101444.03;;;9.86;61.45
64853;BME280;56050;55.558;-4.644;2023-03-19T09:10:48;101441.00;;;9.88;61.23
64853;BME280;56050;55.558;-4.644;2023-03-19T09:13:14;101428.69;;;9.87;61.09
64853;BME280;56050;55.558;-4.644;2023-03-19T09:15:39;101419.88;;;9.90;61.21
64853;BME280;56050;55.558;-4.644;2023-03-19T09:18:05;101412.22;;;9.92;61.30
64853;BME280;56050;55.558;-4.644;2023-03-19T09:20:30;101426.91;;;9.98;61.52
64853;BME280;56050;55.558;-4.644;2023-03-19T09:22:56;101436.22;;;10.04;61.33
64853;BME280;56050;55.558;-4.644;2023-03-19T09:25:21;101445.16;;;10.12;61.18
64853;BME280;56050;55.558;-4.644;2023-03-19T09:27:47;101441.81;;;10.18;61.11
64853;BME280;56050;55.558;-4.644;2023-03-19T09:30:12;101428.88;;;10.27;60.94
64853;BME280;56050;55.558;-4.644;2023-03-19T09:32:38;101430.06;;;10.33;61.08
64853;BME280;56050;55.558;-4.644;2023-03-19T09:35:04;101446.34;;;10.40;60.97
64853;BME280;56050;55.558;-4.644;2023-03-19T09:37:29;101449.84;;;10.44;61.01
64853;BME280;56050;55.558;-4.644;2023-03-19T09:39:55;101452.19;;;10.49;60.75
64853;BME280;56050;55.558;-4.644;2023-03-19T09:42:59;101437.59;;;10.50;60.82
64853;BME280;56050;55.558;-4.644;2023-03-19T09:45:27;101419.91;;;10.53;60.36
64853;BME280;56050;55.558;-4.644;2023-03-19T09:47:58;101420.28;;;10.51;60.31
64853;BME280;56050;55.558;-4.644;2023-03-19T09:50:25;101433.38;;;10.53;60.55
64853;BME280;56050;55.558;-4.644;2023-03-19T09:55:53;101434.63;;;10.59;60.17
64853;BME280;56050;55.558;-4.644;2023-03-19T09:58:22;101428.81;;;10.57;60.22
64853;BME280;56050;55.558;-4.644;2023-03-19T10:00:52;101421.53;;;10.57;60.14
64853;BME280;56050;55.558;-4.644;2023-03-19T10:04:03;101425.34;;;10.56;59.96
64853;BME280;56050;55.558;-4.644;2023-03-19T10:06:35;101435.41;;;10.59;60.23
64853;BME280;56050;55.558;-4.644;2023-03-19T10:09:29;101433.16;;;10.65;59.83
64853;BME280;56050;55.558;-4.644;2023-03-19T10:12:13;101430.91;;;10.71;60.45
64853;BME280;56050;55.558;-4.644;2023-03-19T10:17:34;101437.97;;;10.86;60.20
64853;BME280;56050;55.558;-4.644;2023-03-19T10:20:11;101461.13;;;10.90;59.70
64853;BME280;56050;55.558;-4.644;2023-03-19T10:22:48;101459.19;;;10.91;59.82
64853;BME280;56050;55.558;-4.644;2023-03-19T10:25:21;101459.63;;;10.93;59.54
64853;BME280;56050;55.558;-4.644;2023-03-19T10:27:59;101470.41;;;10.93;59.20
64853;BME280;56050;55.558;-4.644;2023-03-19T10:30:27;101476.97;;;10.95;59.75
64853;BME280;56050;55.558;-4.644;2023-03-19T10:33:43;101487.03;;;11.02;59.58
64853;BME280;56050;55.558;-4.644;2023-03-19T10:35:44;101490.94;;;11.04;59.34
64853;BME280;56050;55.558;-4.644;2023-03-19T10:38:19;101492.41;;;11.02;59.34
64853;BME280;56050;55.558;-4.644;2023-03-19T10:43:54;101490.50;;;11.02;59.20
64853;BME280;56050;55.558;-4.644;2023-03-19T10:46:23;101484.72;;;11.00;59.17
64853;BME280;56050;55.558;-4.644;2023-03-19T10:48:48;101480.09;;;11.01;59.51
64853;BME280;56050;55.558;-4.644;2023-03-19T10:51:18;101483.19;;;11.03;59.23
64853;BME280;56050;55.558;-4.644;2023-03-19T10:53:45;101477.44;;;11.04;59.07
64853;BME280;56050;55.558;-4.644;2023-03-19T10:56:25;101470.91;;;11.05;58.95
64853;BME280;56050;55.558;-4.644;2023-03-19T10:59:02;101479.78;;;11.06;58.46
64853;BME280;56050;55.558;-4.644;2023-03-19T11:01:40;101478.97;;;11.05;58.46
64853;BME280;56050;55.558;-4.644;2023-03-19T11:06:50;101477.41;;;11.01;57.80
64853;BME280;56050;55.558;-4.644;2023-03-19T11:09:35;101472.03;;;11.01;57.61
64853;BME280;56050;55.558;-4.644;2023-03-19T11:12:21;101471.25;;;11.00;57.20
64853;BME280;56050;55.558;-4.644;2023-03-19T11:14:51;101474.34;;;11.02;57.54
64853;BME280;56050;55.558;-4.644;2023-03-19T11:20:53;101464.81;;;11.12;57.46
64853;BME280;56050;55.558;-4.644;2023-03-19T11:22:54;101469.84;;;11.17;57.13
64853;BME280;56050;55.558;-4.644;2023-03-19T11:25:34;101488.34;;;11.18;56.70
64853;BME280;56050;55.558;-4.644;2023-03-19T11:28:22;101486.84;;;11.21;56.95
64853;BME280;56050;55.558;-4.644;2023-03-19T11:45:26;101489.38;;;11.47;57.87
64853;BME280;56050;55.558;-4.644;2023-03-19T11:55:53;101483.28;;;11.57;57.88
64853;BME280;56050;55.558;-4.644;2023-03-19T12:01:37;101486.78;;;11.58;57.77
64853;BME280;56050;55.558;-4.644;2023-03-19T12:04:32;101478.69;;;11.58;58.02
64853;BME280;56050;55.558;-4.644;2023-03-19T12:09:58;101484.09;;;11.61;58.18
64853;BME280;56050;55.558;-4.644;2023-03-19T12:12:32;101476.41;;;11.63;58.13
64853;BME280;56050;55.558;-4.644;2023-03-19T12:15:18;101481.13;;;11.70;58.54
64853;BME280;56050;55.558;-4.644;2023-03-19T12:28:44;101491.69;;;11.96;58.14
64853;BME280;56050;55.558;-4.644;2023-03-19T12:40:24;101496.47;;;12.17;57.51
64853;BME280;56050;55.558;-4.644;2023-03-19T12:42:57;101489.91;;;12.18;57.88
64853;BME280;56050;55.558;-4.644;2023-03-19T12:45:42;101493.44;;;12.25;58.02
64853;BME280;56050;55.558;-4.644;2023-03-19T12:48:14;101483.03;;;12.31;57.85
64853;BME280;56050;55.558;-4.644;2023-03-19T12:50:46;101486.50;;;12.35;57.93
64853;BME280;56050;55.558;-4.644;2023-03-19T12:53:53;101476.91;;;12.41;57.99
64853;BME280;56050;55.558;-4.644;2023-03-19T13:02:44;101489.72;;;12.62;58.17
64853;BME280;56050;55.558;-4.644;2023-03-19T13:04:54;101488.94;;;12.65;58.26
64853;BME280;56050;55.558;-4.644;2023-03-19T13:07:29;101492.44;;;12.69;58.15
64853;BME280;56050;55.558;-4.644;2023-03-19T13:10:16;101489.75;;;12.69;58.09
64853;BME280;56050;55.558;-4.644;2023-03-19T13:12:42;101484.31;;;12.65;58.12
64853;BME280;56050;55.558;-4.644;2023-03-19T13:21:25;101482.00;;;12.60;58.37
64853;BME280;56050;55.558;-4.644;2023-03-19T13:26:49;101476.59;;;12.64;58.50
64853;BME280;56050;55.558;-4.644;2023-03-19T13:29:21;101470.03;;;12.65;58.34
64853;BME280;56050;55.558;-4.644;2023-03-19T13:31:47;101469.28;;;12.64;58.47
64853;BME280;56050;55.558;-4.644;2023-03-19T13:36:41;101469.66;;;12.66;58.69
64853;BME280;56050;55.558;-4.644;2023-03-19T13:39:19;101470.03;;;12.65;58.52
64853;BME280;56050;55.558;-4.644;2023-03-19T13:42:21;101477.38;;;12.61;58.52
64853;BME280;56050;55.558;-4.644;2023-03-19T13:45:34;101468.44;;;12.57;58.43
64853;BME280;56050;55.558;-4.644;2023-03-19T13:47:40;101478.09;;;12.51;58.58
64853;BME280;56050;55.558;-4.644;2023-03-19T13:57:53;101446.03;;;12.42;59.00
64853;BME280;56050;55.558;-4.644;2023-03-19T14:03:21;101450.25;;;12.36;58.76
64853;BME280;56050;55.558;-4.644;2023-03-19T14:05:50;101458.72;;;12.31;59.10
64853;BME280;56050;55.558;-4.644;2023-03-19T14:08:26;101460.66;;;12.30;59.09
64853;BME280;56050;55.558;-4.644;2023-03-19T14:10:59;101466.81;;;12.31;58.91
64853;BME280;56050;55.558;-4.644;2023-03-19T14:13:27;101462.19;;;12.31;59.03
64853;BME280;56050;55.558;-4.644;2023-03-19T14:16:03;101452.16;;;12.28;59.03
64853;BME280;56050;55.558;-4.644;2023-03-19T14:18:30;101437.47;;;12.26;58.88
64853;BME280;56050;55.558;-4.644;2023-03-19T14:21:05;101432.03;;;12.19;58.78
64853;BME280;56050;55.558;-4.644;2023-03-19T14:23:32;101443.59;;;12.16;59.10
64853;BME280;56050;55.558;-4.644;2023-03-19T14:31:03;101442.78;;;12.08;59.60